createdAt,value
2018-06-12T00:03:47.130Z,96389.25
2018-06-12T00:08:41.668Z,96383.53
2018-06-12T00:13:36.207Z,96385.80
2018-06-12T00:18:30.813Z,96397.22
2018-06-12T00:23:25.392Z,96412.48
2018-06-12T00:28:20.768Z,96411.34
2018-06-12T00:33:15.429Z,96412.63
2018-06-12T00:38:10.036Z,96407.20
2018-06-12T00:43:04.666Z,96407.89
2018-06-12T00:48:00.294Z,96410.03
2018-06-12T00:52:54.882Z,96399.30
2018-06-12T00:57:49.479Z,96402.50
2018-06-12T01:02:44.102Z,96407.44
2018-06-12T01:07:38.723Z,96410.39
2018-06-12T01:12:33.291Z,96410.72
2018-06-12T01:17:27.893Z,96414.06
2018-06-12T01:22:22.458Z,96422.88
2018-06-12T01:27:17.347Z,96422.08
2018-06-12T01:32:11.912Z,96420.74
2018-06-12T01:37:06.542Z,96433.77
2018-06-12T01:42:01.115Z,96435.07
2018-06-12T01:46:55.745Z,96431.59
2018-06-12T01:51:50.367Z,96426.95
2018-06-12T01:56:45.691Z,96423.78
2018-06-12T02:01:40.251Z,96415.83
2018-06-12T02:06:34.810Z,96415.68
2018-06-12T02:11:29.399Z,96422.16
2018-06-12T02:16:23.959Z,96421.64
2018-06-12T02:21:18.543Z,96423.72
2018-06-12T02:26:13.083Z,96413.75
2018-06-12T02:31:07.727Z,96408.30
2018-06-12T02:36:02.358Z,96405.64
2018-06-12T02:40:56.932Z,96406.61
2018-06-12T02:45:51.505Z,96410.89
2018-06-12T02:50:46.376Z,96407.61
2018-06-12T02:55:40.920Z,96392.73
2018-06-12T03:00:35.476Z,96398.02
2018-06-12T03:05:30.095Z,96391.41
2018-06-12T03:10:24.679Z,96392.72
2018-06-12T03:15:19.256Z,96393.22
2018-06-12T03:20:13.808Z,96389.58
2018-06-12T03:25:08.402Z,96399.05
2018-06-12T03:30:02.960Z,96394.06
2018-06-12T03:34:57.542Z,96386.41
2018-06-12T03:39:52.133Z,96374.12
2018-06-12T03:44:46.986Z,96381.37
2018-06-12T03:49:41.632Z,96381.28
2018-06-12T03:54:36.498Z,96374.44
2018-06-12T03:59:31.145Z,96372.72
2018-06-12T04:04:25.712Z,96378.80
2018-06-12T04:09:20.347Z,96373.89
2018-06-12T04:14:14.911Z,96375.05
2018-06-12T04:19:09.522Z,96374.69
2018-06-12T04:24:04.237Z,96369.30
2018-06-12T04:28:58.867Z,96363.33
2018-06-12T04:33:53.447Z,96368.16
2018-06-12T04:38:48.043Z,96370.63
2018-06-12T04:43:42.558Z,96367.66
2018-06-12T04:48:37.151Z,96364.47
2018-06-12T04:53:32.030Z,96360.30
2018-06-12T04:58:26.588Z,96350.19
2018-06-12T05:03:21.182Z,96359.77
2018-06-12T05:08:15.785Z,96371.28
2018-06-12T05:13:10.417Z,96370.97
2018-06-12T05:18:05.130Z,96377.95
2018-06-12T05:22:59.760Z,96372.64
2018-06-12T05:27:54.363Z,96379.49
2018-06-12T05:32:48.920Z,96380.55
2018-06-12T05:37:43.485Z,96369.73
2018-06-12T05:42:38.246Z,96378.13
2018-06-12T05:47:32.842Z,96391.22
2018-06-12T05:52:27.470Z,96399.20
2018-06-12T05:57:22.059Z,96410.77
2018-06-12T06:02:16.720Z,96411.63
2018-06-12T06:07:11.282Z,96411.37
2018-06-12T06:12:05.978Z,96418.27
2018-06-12T06:17:00.615Z,96410.61
2018-06-12T06:21:55.188Z,96417.91
2018-06-12T06:26:49.768Z,96417.05
2018-06-12T06:31:44.344Z,96420.39
2018-06-12T06:36:38.975Z,96428.60
2018-06-12T06:41:33.226Z,96430.78
2018-06-12T06:46:27.815Z,96423.98
2018-06-12T06:51:22.381Z,96428.30
2018-06-12T06:56:16.992Z,96431.11
2018-06-12T07:01:11.541Z,96431.58
2018-06-12T07:06:06.191Z,96431.97
2018-06-12T07:11:00.771Z,96418.67
2018-06-12T07:15:55.407Z,96426.24
2018-06-12T07:21:52.786Z,96421.63
2018-06-12T07:26:47.319Z,96419.06
2018-06-12T07:31:42.163Z,96415.99
2018-06-12T07:36:36.774Z,96408.67
2018-06-12T07:41:32.214Z,96412.33
2018-06-12T07:46:26.782Z,96411.64
2018-06-12T07:51:21.374Z,96417.45
2018-06-12T07:56:15.932Z,96419.17
2018-06-12T08:01:10.446Z,96413.37
2018-06-12T08:06:05.085Z,96406.91
2018-06-12T08:10:59.623Z,96404.35
2018-06-12T08:15:54.178Z,96399.94
2018-06-12T08:20:48.743Z,96394.10
2018-06-12T08:25:43.298Z,96394.56
2018-06-12T08:30:37.919Z,96389.76
2018-06-12T08:35:32.535Z,96388.72
2018-06-12T08:40:27.124Z,96394.65
2018-06-12T08:45:21.679Z,96392.75
2018-06-12T08:50:16.575Z,96394.59
2018-06-12T08:55:11.135Z,96394.69
2018-06-12T09:00:05.830Z,96390.16
2018-06-12T09:05:00.349Z,96388.75
2018-06-12T09:09:54.942Z,96388.95
2018-06-12T09:14:49.462Z,96383.22
2018-06-12T09:19:44.043Z,96384.83
2018-06-12T09:24:38.574Z,96390.14
2018-06-12T09:29:33.220Z,96392.55
2018-06-12T09:34:27.484Z,96400.23
2018-06-12T09:39:22.059Z,96402.61
2018-06-12T09:44:16.575Z,96399.02
2018-06-12T09:49:12.839Z,96400.11
2018-06-12T09:54:07.427Z,96403.00
2018-06-12T09:59:01.988Z,96398.86
2018-06-12T10:03:56.577Z,96392.30
2018-06-12T10:08:51.143Z,96395.98
2018-06-12T10:13:45.677Z,96392.09
2018-06-12T10:18:40.277Z,96397.86
2018-06-12T10:23:34.834Z,96375.92
2018-06-12T10:28:29.432Z,96378.28
2018-06-12T10:33:23.989Z,96370.55
2018-06-12T10:38:18.510Z,96368.11
2018-06-12T10:43:13.042Z,96360.55
2018-06-12T10:48:07.653Z,96357.29
2018-06-12T10:53:02.215Z,96355.36
2018-06-12T10:57:57.765Z,96343.12
2018-06-12T11:02:52.314Z,96342.77
2018-06-12T11:07:46.870Z,96333.32
2018-06-12T11:12:41.444Z,96330.38
2018-06-12T11:17:36.067Z,96322.41
2018-06-12T11:22:30.605Z,96328.72
2018-06-12T11:27:25.217Z,96329.56
2018-06-12T11:32:19.719Z,96324.77
2018-06-12T11:37:14.279Z,96324.14
2018-06-12T11:42:08.815Z,96330.38
2018-06-12T11:47:03.430Z,96326.30
2018-06-12T11:51:57.997Z,96324.03
2018-06-12T11:56:52.562Z,96315.48
2018-06-12T12:01:47.282Z,96315.56
2018-06-12T12:06:41.807Z,96308.91
2018-06-12T12:11:36.827Z,96304.85
2018-06-12T12:16:31.400Z,96297.53
2018-06-12T12:21:25.960Z,96290.83
2018-06-12T12:26:21.071Z,96290.04
2018-06-12T12:31:15.668Z,96287.17
2018-06-12T12:36:10.223Z,96281.32
2018-06-12T12:41:04.847Z,96283.70
2018-06-12T12:45:59.401Z,96280.02
2018-06-12T12:50:53.951Z,96280.30
2018-06-12T12:55:48.510Z,96279.58
2018-06-12T13:05:48.961Z,96271.61
2018-06-12T13:10:43.537Z,96267.22
2018-06-12T13:15:38.077Z,96264.42
2018-06-12T13:20:32.307Z,96273.64
2018-06-12T13:25:26.852Z,96276.74
2018-06-12T13:30:21.862Z,96285.41
2018-06-12T13:35:16.424Z,96290.23
2018-06-12T13:40:11.094Z,96291.90
2018-06-12T13:45:05.749Z,96279.47
2018-06-12T13:50:02.184Z,96271.08
2018-06-12T13:54:56.790Z,96259.17
2018-06-12T13:59:51.382Z,96266.25
2018-06-12T14:04:46.002Z,96261.20
2018-06-12T14:09:41.028Z,96256.34
2018-06-12T14:14:35.549Z,96248.11
2018-06-12T14:19:30.154Z,96251.89
2018-06-12T14:24:24.746Z,96245.16
2018-06-12T14:29:19.330Z,96240.59
2018-06-12T14:34:13.897Z,96244.16
2018-06-12T14:39:09.818Z,96245.36
2018-06-12T14:44:04.392Z,96239.35
2018-06-12T14:48:58.938Z,96240.75
2018-06-12T14:53:53.459Z,96235.19
2018-06-12T14:58:48.046Z,96228.68
2018-06-12T15:03:42.614Z,96221.87
2018-06-12T15:08:37.188Z,96225.52
2018-06-12T15:13:31.770Z,96230.47
2018-06-12T15:18:26.363Z,96221.89
2018-06-12T15:23:20.958Z,96226.92
2018-06-12T15:28:15.584Z,96209.86
2018-06-12T15:33:10.168Z,96212.75
2018-06-12T15:38:04.731Z,96214.42
2018-06-12T15:42:59.286Z,96219.91
2018-06-12T15:47:53.862Z,96220.20
2018-06-12T15:52:48.415Z,96225.19
2018-06-12T15:57:42.988Z,96220.17
2018-06-12T16:02:37.583Z,96221.30
2018-06-12T16:07:32.163Z,96217.42
2018-06-12T16:12:26.770Z,96218.95
2018-06-12T16:17:21.350Z,96221.13
2018-06-12T16:22:15.954Z,96219.25
2018-06-12T16:27:10.614Z,96228.92
2018-06-12T16:32:05.261Z,96219.78
2018-06-12T16:36:59.899Z,96224.62
2018-06-12T16:41:54.499Z,96232.31
2018-06-12T16:46:49.051Z,96242.40
2018-06-12T16:51:43.601Z,96249.80
2018-06-12T16:56:38.237Z,96254.01
2018-06-12T17:01:32.811Z,96257.52
2018-06-12T17:06:27.398Z,96266.98
2018-06-12T17:11:22.000Z,96265.29
2018-06-12T17:16:16.614Z,96266.00
2018-06-12T17:21:11.231Z,96277.11
2018-06-12T17:26:05.910Z,96281.17
2018-06-12T17:31:00.572Z,96282.44
2018-06-12T17:35:55.299Z,96283.99
2018-06-12T17:40:49.875Z,96303.66
2018-06-12T17:45:44.543Z,96302.72
2018-06-12T17:50:39.995Z,96296.87
2018-06-12T17:55:35.067Z,96307.74
2018-06-12T18:17:16.047Z,96338.94
2018-06-12T18:27:24.728Z,96352.07
2018-06-12T18:32:44.068Z,96348.83
2018-06-12T18:38:00.124Z,96365.11
2018-06-12T18:43:13.344Z,96366.08
2018-06-12T18:48:34.683Z,96364.83
2018-06-12T18:53:33.286Z,96368.91
2018-06-12T18:58:28.632Z,96361.38
2018-06-12T19:03:24.247Z,96352.48
2018-06-12T19:08:29.594Z,96353.02
2018-06-12T19:18:58.139Z,96335.37
2018-06-12T19:24:12.462Z,96338.45
2018-06-12T19:40:19.206Z,96344.24
2018-06-12T19:45:14.287Z,96346.58
2018-06-12T19:50:10.425Z,96339.80
2018-06-12T19:55:24.798Z,96343.77
2018-06-12T20:00:20.521Z,96344.45
2018-06-12T20:05:19.357Z,96356.67
2018-06-12T20:10:20.221Z,96358.50
2018-06-12T20:16:59.350Z,96361.67
2018-06-12T20:21:56.326Z,96367.36
2018-06-12T20:26:51.396Z,96367.56
2018-06-12T20:31:46.669Z,96364.41
2018-06-12T20:36:41.871Z,96368.56
2018-06-12T20:41:37.096Z,96368.77
2018-06-12T20:46:32.355Z,96366.80
2018-06-12T20:51:27.649Z,96365.42
2018-06-12T20:56:22.667Z,96372.05
2018-06-12T21:01:17.548Z,96357.95
2018-06-12T21:06:12.707Z,96351.98
2018-06-12T21:11:07.861Z,96351.47
2018-06-12T21:16:03.065Z,96351.02
2018-06-12T21:20:58.123Z,96349.13
2018-06-12T21:25:53.979Z,96357.48
2018-06-12T21:30:49.079Z,96357.16
2018-06-12T21:36:35.267Z,96352.53
2018-06-12T21:41:34.020Z,96348.88
2018-06-12T21:46:31.065Z,96348.70
2018-06-12T21:51:27.341Z,96348.38
2018-06-12T21:56:22.491Z,96345.05
2018-06-12T22:01:17.789Z,96354.87
2018-06-12T22:06:13.665Z,96348.75
2018-06-12T22:16:33.413Z,96340.95
2018-06-12T22:21:30.760Z,96338.69
2018-06-12T22:26:25.632Z,96341.31
2018-06-12T23:03:51.126Z,96338.36
2018-06-12T23:09:08.875Z,96334.58
2018-06-12T23:14:04.823Z,96332.44
2018-06-12T23:18:59.923Z,96338.73
2018-06-12T23:24:10.512Z,96320.52
2018-06-12T23:29:08.184Z,96321.52
2018-06-12T23:34:03.306Z,96321.20
2018-06-12T23:38:58.351Z,96312.94
2018-06-12T23:43:53.449Z,96310.11
2018-06-12T23:48:48.582Z,96307.59
2018-06-12T23:59:00.560Z,96308.78
